sensor_id;sensor_type;location;lat;lon;timestamp;pressure;altitude;pressure_sealevel;temperature;humidity
7433;BME280;32233;49.500;7.764;2023-11-18T00:01:33;99332.84;;;4.54;100.00
7433;BME280;32233;49.500;7.764;2023-11-18T00:04:00;99336.28;;;4.54;100.00
7433;BME280;32233;49.500;7.764;2023-11-18T00:06:26;99337.91;;;4.65;100.00
7433;BME280;32233;49.500;7.764;2023-11-18T00:08:54;99328.94;;;4.67;100.00
7433;BME280;32233;49.500;7.764;2023-11-18T00:11:21;99339.69;;;4.74;100.00
7433;BME280;32233;49.500;7.764;2023-11-18T00:13:47;99327.25;;;4.76;100.00
7433;BME280;32233;49.500;7.764;2023-11-18T00:16:14;99323.97;;;4.74;100.00
7433;BME280;32233;49.500;7.764;2023-11-18T00:18:43;99320.66;;;4.72;100.00
7433;BME280;32233;49.500;7.764;2023-11-18T00:21:09;99330.16;;;4.73;100.00
7433;BME280;32233;49.500;7.764;2023-11-18T00:23:36;99317.75;;;4.75;100.00
7433;BME280;32233;49.500;7.764;2023-11-18T00:26:03;99316.13;;;4.74;100.00
7433;BME280;32233;49.500;7.764;2023-11-18T00:28:30;99311.41;;;4.78;100.00
7433;BME280;32233;49.500;7.764;2023-11-18T00:30:56;99308.25;;;4.74;100.00
7433;BME280;32233;49.500;7.764;2023-11-18T00:33:23;99304.28;;;4.70;100.00
7433;BME280;32233;49.500;7.764;2023-11-18T00:35:50;99299.16;;;4.68;100.00
7433;BME280;32233;49.500;7.764;2023-11-18T00:38:16;99310.19;;;4.72;100.00
7433;BME280;32233;49.500;7.764;2023-11-18T00:40:44;99300.53;;;4.72;100.00
7433;BME280;32233;49.500;7.764;2023-11-18T00:43:10;99312.53;;;4.75;100.00
7433;BME280;32233;49.500;7.764;2023-11-18T00:45:37;99309.34;;;4.71;100.00
7433;BME280;32233;49.500;7.764;2023-11-18T00:48:04;99318.03;;;4.72;100.00
7433;BME280;32233;49.500;7.764;2023-11-18T00:50:31;99325.63;;;4.75;100.00
7433;BME280;32233;49.500;7.764;2023-11-18T00:52:59;99327.13;;;4.78;100.00
7433;BME280;32233;49.500;7.764;2023-11-18T00:55:26;99328.91;;;4.77;100.00
7433;BME280;32233;49.500;7.764;2023-11-18T00:57:53;99336.91;;;4.76;100.00
7433;BME280;32233;49.500;7.764;2023-11-18T01:00:19;99332.50;;;4.76;100.00
7433;BME280;32233;49.500;7.764;2023-11-18T01:02:49;99335.28;;;4.75;100.00
7433;BME280;32233;49.500;7.764;2023-11-18T01:05:16;99327.25;;;4.76;100.00
7433;BME280;32233;49.500;7.764;2023-11-18T01:07:43;99325.88;;;4.82;100.00
7433;BME280;32233;49.500;7.764;2023-11-18T01:10:11;99325.88;;;4.82;100.00
7433;BME280;32233;49.500;7.764;2023-11-18T01:12:37;99328.34;;;4.83;100.00
7433;BME280;32233;49.500;7.764;2023-11-18T01:15:05;99320.22;;;4.86;100.00
7433;BME280;32233;49.500;7.764;2023-11-18T01:17:32;99315.25;;;4.83;100.00
7433;BME280;32233;49.500;7.764;2023-11-18T01:19:59;99314.44;;;4.83;100.00
7433;BME280;32233;49.500;7.764;2023-11-18T01:22:29;99309.19;;;4.83;100.00
7433;BME280;32233;49.500;7.764;2023-11-18T01:24:55;99309.72;;;4.86;100.00
7433;BME280;32233;49.500;7.764;2023-11-18T01:27:25;99303.94;;;4.83;100.00
7433;BME280;32233;49.500;7.764;2023-11-18T01:29:52;99299.69;;;4.82;100.00
7433;BME280;32233;49.500;7.764;2023-11-18T01:32:18;99302.25;;;4.91;100.00
7433;BME280;32233;49.500;7.764;2023-11-18T01:34:45;99316.88;;;4.94;100.00
7433;BME280;32233;49.500;7.764;2023-11-18T01:37:17;99317.81;;;4.93;100.00
7433;BME280;32233;49.500;7.764;2023-11-18T01:39:43;99323.59;;;4.96;100.00
7433;BME280;32233;49.500;7.764;2023-11-18T01:42:11;99321.00;;;4.96;100.00
7433;BME280;32233;49.500;7.764;2023-11-18T01:44:38;99323.16;;;5.01;100.00
7433;BME280;32233;49.500;7.764;2023-11-18T01:47:04;99324.00;;;5.02;100.00
7433;BME280;32233;49.500;7.764;2023-11-18T01:49:34;99322.34;;;5.01;100.00
7433;BME280;32233;49.500;7.764;2023-11-18T01:52:04;99325.34;;;5.06;100.00
7433;BME280;32233;49.500;7.764;2023-11-18T01:54:30;99325.34;;;5.06;100.00
7433;BME280;32233;49.500;7.764;2023-11-18T01:56:58;99325.34;;;5.06;100.00
7433;BME280;32233;49.500;7.764;2023-11-18T01:59:28;99328.28;;;5.03;100.00
7433;BME280;32233;49.500;7.764;2023-11-18T02:01:56;99328.28;;;5.03;100.00
7433;BME280;32233;49.500;7.764;2023-11-18T02:04:26;99334.88;;;5.07;100.00
7433;BME280;32233;49.500;7.764;2023-11-18T02:06:54;99331.56;;;5.05;100.00
7433;BME280;32233;49.500;7.764;2023-11-18T02:09:23;99329.78;;;5.05;100.00
7433;BME280;32233;49.500;7.764;2023-11-18T02:14:39;99334.63;;;5.00;100.00
7433;BME280;32233;49.500;7.764;2023-11-18T02:17:07;99332.97;;;4.99;100.00
7433;BME280;32233;49.500;7.764;2023-11-18T02:19:38;99331.34;;;4.98;100.00
7433;BME280;32233;49.500;7.764;2023-11-18T02:22:07;99323.75;;;4.95;100.00
7433;BME280;32233;49.500;7.764;2023-11-18T02:24:35;99331.19;;;5.00;100.00
7433;BME280;32233;49.500;7.764;2023-11-18T02:27:07;99330.38;;;4.99;100.00
7433;BME280;32233;49.500;7.764;2023-11-18T02:29:39;99334.78;;;4.99;100.00
7433;BME280;32233;49.500;7.764;2023-11-18T02:32:15;99344.97;;;5.02;100.00
7433;BME280;32233;49.500;7.764;2023-11-18T02:35:07;99331.72;;;5.03;100.00
7433;BME280;32233;49.500;7.764;2023-11-18T02:37:39;99331.72;;;5.03;100.00
7433;BME280;32233;49.500;7.764;2023-11-18T02:40:07;99328.84;;;4.96;100.00
7433;BME280;32233;49.500;7.764;2023-11-18T02:42:38;99322.78;;;4.96;100.00
7433;BME280;32233;49.500;7.764;2023-11-18T02:45:07;99331.75;;;4.93;100.00
7433;BME280;32233;49.500;7.764;2023-11-18T02:47:33;99326.22;;;4.96;100.00
7433;BME280;32233;49.500;7.764;2023-11-18T02:50:00;99326.94;;;4.99;100.00
7433;BME280;32233;49.500;7.764;2023-11-18T02:52:31;99318.38;;;4.96;100.00
7433;BME280;32233;49.500;7.764;2023-11-18T02:54:59;99315.75;;;4.96;100.00
7433;BME280;32233;49.500;7.764;2023-11-18T02:57:26;99319.06;;;4.99;100.00
7433;BME280;32233;49.500;7.764;2023-11-18T02:59:52;99308.28;;;5.02;100.00
7433;BME280;32233;49.500;7.764;2023-11-18T03:02:19;99312.31;;;4.96;100.00
7433;BME280;32233;49.500;7.764;2023-11-18T03:04:47;99320.00;;;4.97;100.00
7433;BME280;32233;49.500;7.764;2023-11-18T03:07:14;99329.13;;;4.93;100.00
7433;BME280;32233;49.500;7.764;2023-11-18T03:09:40;99330.25;;;4.91;100.00
7433;BME280;32233;49.500;7.764;2023-11-18T03:12:07;99337.28;;;4.90;100.00
7433;BME280;32233;49.500;7.764;2023-11-18T03:14:34;99336.75;;;4.87;100.00
7433;BME280;32233;49.500;7.764;2023-11-18T03:17:01;99338.25;;;4.89;100.00
7433;BME280;32233;49.500;7.764;2023-11-18T03:19:28;99344.50;;;4.79;100.00
7433;BME280;32233;49.500;7.764;2023-11-18T03:21:55;99342.00;;;4.77;100.00
7433;BME280;32233;49.500;7.764;2023-11-18T03:24:22;99338.72;;;4.75;100.00
7433;BME280;32233;49.500;7.764;2023-11-18T03:26:49;99340.34;;;4.76;100.00
7433;BME280;32233;49.500;7.764;2023-11-18T03:29:16;99334.03;;;4.79;100.00
7433;BME280;32233;49.500;7.764;2023-11-18T03:31:42;99331.53;;;4.77;100.00
7433;BME280;32233;49.500;7.764;2023-11-18T03:34:11;99321.91;;;4.78;100.00
7433;BME280;32233;49.500;7.764;2023-11-18T03:36:37;99319.41;;;4.76;100.00
7433;BME280;32233;49.500;7.764;2023-11-18T03:39:04;99327.69;;;4.71;100.00
7433;BME280;32233;49.500;7.764;2023-11-18T03:41:31;99328.66;;;4.70;100.00
7433;BME280;32233;49.500;7.764;2023-11-18T03:43:57;99329.34;;;4.72;100.00
7433;BME280;32233;49.500;7.764;2023-11-18T03:46:24;99335.28;;;4.75;100.00
7433;BME280;32233;49.500;7.764;2023-11-18T03:48:51;99337.19;;;4.72;100.00
7433;BME280;32233;49.500;7.764;2023-11-18T03:51:17;99342.69;;;4.79;100.00
7433;BME280;32233;49.500;7.764;2023-11-18T03:53:44;99341.88;;;4.79;100.00
7433;BME280;32233;49.500;7.764;2023-11-18T03:56:16;99348.22;;;4.76;100.00
7433;BME280;32233;49.500;7.764;2023-11-18T03:58:44;99345.31;;;4.79;100.00
7433;BME280;32233;49.500;7.764;2023-11-18T04:01:24;99352.47;;;4.77;100.00
7433;BME280;32233;49.500;7.764;2023-11-18T04:03:54;99339.81;;;4.72;100.00
7433;BME280;32233;49.500;7.764;2023-11-18T04:06:21;99331.94;;;4.72;100.00
7433;BME280;32233;49.500;7.764;2023-11-18T04:08:48;99323.16;;;4.74;100.00
7433;BME280;32233;49.500;7.764;2023-11-18T04:11:15;99316.41;;;4.71;100.00
7433;BME280;32233;49.500;7.764;2023-11-18T04:13:42;99325.34;;;4.68;100.00
7433;BME280;32233;49.500;7.764;2023-11-18T04:16:13;99325.66;;;4.65;100.00
7433;BME280;32233;49.500;7.764;2023-11-18T04:18:42;99331.16;;;4.62;100.00
7433;BME280;32233;49.500;7.764;2023-11-18T04:21:10;99325.38;;;4.59;100.00
7433;BME280;32233;49.500;7.764;2023-11-18T04:23:38;99323.16;;;4.64;100.00
7433;BME280;32233;49.500;7.764;2023-11-18T04:26:05;99326.59;;;4.64;100.00
7433;BME280;32233;49.500;7.764;2023-11-18T04:28:34;99331.72;;;4.66;100.00
7433;BME280;32233;49.500;7.764;2023-11-18T04:31:02;99334.47;;;4.64;100.00
7433;BME280;32233;49.500;7.764;2023-11-18T04:33:29;99327.19;;;4.58;100.00
7433;BME280;32233;49.500;7.764;2023-11-18T04:35:56;99309.69;;;4.59;100.00
7433;BME280;32233;49.500;7.764;2023-11-18T04:38:26;99318.34;;;4.59;100.00
7433;BME280;32233;49.500;7.764;2023-11-18T04:40:53;99327.19;;;4.58;100.00
7433;BME280;32233;49.500;7.764;2023-11-18T04:43:21;99319.06;;;4.61;100.00
7433;BME280;32233;49.500;7.764;2023-11-18T04:46:06;99325.22;;;4.60;100.00
7433;BME280;32233;49.500;7.764;2023-11-18T04:48:33;99314.63;;;4.62;100.00
7433;BME280;32233;49.500;7.764;2023-11-18T04:51:04;99314.22;;;4.66;100.00
7433;BME280;32233;49.500;7.764;2023-11-18T04:53:32;99317.69;;;4.57;100.00
7433;BME280;32233;49.500;7.764;2023-11-18T04:55:58;99317.97;;;4.54;100.00
7433;BME280;32233;49.500;7.764;2023-11-18T04:58:25;99310.09;;;4.54;100.00
7433;BME280;32233;49.500;7.764;2023-11-18T05:00:51;99323.75;;;4.48;100.00
7433;BME280;32233;49.500;7.764;2023-11-18T05:03:18;99311.91;;;4.54;100.00
7433;BME280;32233;49.500;7.764;2023-11-18T05:05:45;99315.06;;;4.47;100.00
7433;BME280;32233;49.500;7.764;2023-11-18T05:08:19;99324.28;;;4.52;100.00
7433;BME280;32233;49.500;7.764;2023-11-18T05:10:50;99327.34;;;4.47;100.00
7433;BME280;32233;49.500;7.764;2023-11-18T05:13:17;99327.50;;;4.45;100.00
7433;BME280;32233;49.500;7.764;2023-11-18T05:15:46;99329.28;;;4.45;100.00
7433;BME280;32233;49.500;7.764;2023-11-18T05:18:13;99322.13;;;4.37;100.00
7433;BME280;32233;49.500;7.764;2023-11-18T05:20:44;99320.88;;;4.41;100.00
7433;BME280;32233;49.500;7.764;2023-11-18T05:23:12;99312.09;;;4.33;100.00
7433;BME280;32233;49.500;7.764;2023-11-18T05:25:42;99304.22;;;4.33;100.00
7433;BME280;32233;49.500;7.764;2023-11-18T05:28:12;99317.84;;;4.36;100.00
7433;BME280;32233;49.500;7.764;2023-11-18T05:30:41;99305.72;;;4.35;100.00
7433;BME280;32233;49.500;7.764;2023-11-18T05:33:09;99293.59;;;4.34;100.00
7433;BME280;32233;49.500;7.764;2023-11-18T05:35:41;99299.13;;;4.31;100.00
7433;BME280;32233;49.500;7.764;2023-11-18T05:38:19;99294.97;;;4.38;100.00
7433;BME280;32233;49.500;7.764;2023-11-18T05:40:48;99296.09;;;4.26;100.00
7433;BME280;32233;49.500;7.764;2023-11-18T05:43:25;99293.22;;;4.29;100.00
7433;BME280;32233;49.500;7.764;2023-11-18T05:45:56;99291.97;;;4.33;100.00
7433;BME280;32233;49.500;7.764;2023-11-18T05:48:42;99288.81;;;4.30;100.00
7433;BME280;32233;49.500;7.764;2023-11-18T05:51:10;99295.94;;;4.28;100.00
7433;BME280;32233;49.500;7.764;2023-11-18T05:53:43;99302.13;;;4.36;100.00
7433;BME280;32233;49.500;7.764;2023-11-18T05:56:13;99299.78;;;4.43;100.00
7433;BME280;32233;49.500;7.764;2023-11-18T05:58:40;99288.38;;;4.34;100.00
7433;BME280;32233;49.500;7.764;2023-11-18T06:01:07;99289.03;;;4.36;100.00
7433;BME280;32233;49.500;7.764;2023-11-18T06:03:34;99290.59;;;4.29;100.00
7433;BME280;32233;49.500;7.764;2023-11-18T06:06:10;99299.94;;;4.32;100.00
7433;BME280;32233;49.500;7.764;2023-11-18T06:08:38;99297.75;;;4.37;100.00
7433;BME280;32233;49.500;7.764;2023-11-18T06:11:09;99299.25;;;4.39;100.00
7433;BME280;32233;49.500;7.764;2023-11-18T06:13:47;99292.91;;;4.42;100.00
7433;BME280;32233;49.500;7.764;2023-11-18T06:16:22;99289.47;;;4.41;100.00
7433;BME280;32233;49.500;7.764;2023-11-18T06:18:54;99275.94;;;4.46;100.00
7433;BME280;32233;49.500;7.764;2023-11-18T06:21:26;99278.69;;;4.44;100.00
7433;BME280;32233;49.500;7.764;2023-11-18T06:23:58;99265.19;;;4.49;100.00
7433;BME280;32233;49.500;7.764;2023-11-18T06:26:25;99256.66;;;4.47;100.00
7433;BME280;32233;49.500;7.764;2023-11-18T06:28:55;99253.22;;;4.46;100.00
7433;BME280;32233;49.500;7.764;2023-11-18T06:31:23;99253.06;;;4.48;100.00
7433;BME280;32233;49.500;7.764;2023-11-18T06:33:50;99259.81;;;4.51;100.00
7433;BME280;32233;49.500;7.764;2023-11-18T06:36:18;99257.47;;;4.57;100.00
7433;BME280;32233;49.500;7.764;2023-11-18T06:38:49;99267.38;;;4.54;100.00
7433;BME280;32233;49.500;7.764;2023-11-18T06:41:18;99271.38;;;4.48;100.00
7433;BME280;32233;49.500;7.764;2023-11-18T06:43:46;99264.66;;;4.45;100.00
7433;BME280;32233;49.500;7.764;2023-11-18T06:48:52;99268.22;;;4.44;100.00
7433;BME280;32233;49.500;7.764;2023-11-18T06:51:22;99270.56;;;4.47;100.00
7433;BME280;32233;49.500;7.764;2023-11-18T06:53:51;99270.94;;;4.53;100.00
7433;BME280;32233;49.500;7.764;2023-11-18T06:56:18;99274.53;;;4.52;100.00
7433;BME280;32233;49.500;7.764;2023-11-18T06:58:45;99275.09;;;4.55;100.00
7433;BME280;32233;49.500;7.764;2023-11-18T07:01:15;99270.94;;;4.53;100.00
7433;BME280;32233;49.500;7.764;2023-11-18T07:03:42;99263.25;;;4.51;100.00
7433;BME280;32233;49.500;7.764;2023-11-18T07:06:10;99269.03;;;4.55;100.00
7433;BME280;32233;49.500;7.764;2023-11-18T07:08:37;99279.34;;;4.56;100.00
7433;BME280;32233;49.500;7.764;2023-11-18T07:11:05;99271.91;;;4.61;100.00
7433;BME280;32233;49.500;7.764;2023-11-18T07:13:32;99269.97;;;4.63;100.00
7433;BME280;32233;49.500;7.764;2023-11-18T07:16:01;99265.56;;;4.64;100.00
7433;BME280;32233;49.500;7.764;2023-11-18T07:18:30;99268.88;;;4.66;100.00
7433;BME280;32233;49.500;7.764;2023-11-18T07:21:01;99257.13;;;4.70;100.00
7433;BME280;32233;49.500;7.764;2023-11-18T07:23:30;99255.34;;;4.70;100.00
7433;BME280;32233;49.500;7.764;2023-11-18T07:25:57;99262.31;;;4.80;100.00
7433;BME280;32233;49.500;7.764;2023-11-18T07:28:24;99267.41;;;4.81;100.00
7433;BME280;32233;49.500;7.764;2023-11-18T07:30:53;99269.06;;;4.82;100.00
7433;BME280;32233;49.500;7.764;2023-11-18T07:33:20;99273.78;;;4.79;100.00
7433;BME280;32233;49.500;7.764;2023-11-18T07:35:48;99282.31;;;4.81;100.00
7433;BME280;32233;49.500;7.764;2023-11-18T07:38:15;99284.25;;;4.79;100.00
7433;BME280;32233;49.500;7.764;2023-11-18T07:40:42;99278.41;;;4.85;100.00
7433;BME280;32233;49.500;7.764;2023-11-18T07:43:12;99280.19;;;4.94;100.00
7433;BME280;32233;49.500;7.764;2023-11-18T07:45:39;99279.22;;;4.95;100.00
7433;BME280;32233;49.500;7.764;2023-11-18T07:48:10;99288.19;;;4.92;100.00
7433;BME280;32233;49.500;7.764;2023-11-18T07:50:39;99298.94;;;4.89;100.00
7433;BME280;32233;49.500;7.764;2023-11-18T07:53:11;99296.03;;;4.92;100.00
7433;BME280;32233;49.500;7.764;2023-11-18T07:55:38;99299.34;;;4.94;100.00
7433;BME280;32233;49.500;7.764;2023-11-18T07:58:08;99289.16;;;4.91;100.00
7433;BME280;32233;49.500;7.764;2023-11-18T08:00:38;99281.03;;;4.94;100.00
7433;BME280;32233;49.500;7.764;2023-11-18T08:03:06;99278.09;;;4.97;100.00
7433;BME280;32233;49.500;7.764;2023-11-18T08:05:38;99271.47;;;5.03;100.00
7433;BME280;32233;49.500;7.764;2023-11-18T08:08:10;99258.28;;;5.13;100.00
7433;BME280;32233;49.500;7.764;2023-11-18T08:10:38;99264.22;;;5.15;100.00
7433;BME280;32233;49.500;7.764;2023-11-18T08:13:06;99264.44;;;5.21;100.00
7433;BME280;32233;49.500;7.764;2023-11-18T08:15:38;99267.16;;;5.30;100.00
7433;BME280;32233;49.500;7.764;2023-11-18T08:18:06;99267.94;;;5.40;100.00
7433;BME280;32233;49.500;7.764;2023-11-18T08:20:33;99271.19;;;5.52;100.00
7433;BME280;32233;49.500;7.764;2023-11-18T08:23:00;99263.75;;;5.47;100.00
7433;BME280;32233;49.500;7.764;2023-11-18T08:25:26;99266.88;;;5.51;100.00
7433;BME280;32233;49.500;7.764;2023-11-18T08:27:53;99261.88;;;5.57;100.00
7433;BME280;32233;49.500;7.764;2023-11-18T08:30:20;99260.06;;;5.58;100.00
7433;BME280;32233;49.500;7.764;2023-11-18T08:32:47;99252.44;;;5.64;100.00
7433;BME280;32233;49.500;7.764;2023-11-18T08:35:15;99244.13;;;5.69;100.00
7433;BME280;32233;49.500;7.764;2023-11-18T08:37:43;99248.91;;;5.74;100.00
7433;BME280;32233;49.500;7.764;2023-11-18T08:40:11;99246.44;;;5.72;100.00
7433;BME280;32233;49.500;7.764;2023-11-18T08:42:45;99252.06;;;5.77;100.00
7433;BME280;32233;49.500;7.764;2023-11-18T08:45:20;99248.22;;;5.89;100.00
7433;BME280;32233;49.500;7.764;2023-11-18T08:48:01;99248.50;;;5.96;100.00
7433;BME280;32233;49.500;7.764;2023-11-18T08:50:35;99233.41;;;5.98;100.00
7433;BME280;32233;49.500;7.764;2023-11-18T08:53:01;99247.03;;;6.02;100.00
7433;BME280;32233;49.500;7.764;2023-11-18T08:55:32;99248.56;;;6.04;100.00
7433;BME280;32233;49.500;7.764;2023-11-18T08:58:17;99240.94;;;6.19;100.00
7433;BME280;32233;49.500;7.764;2023-11-18T09:01:00;99246.53;;;6.24;100.00
7433;BME280;32233;49.500;7.764;2023-11-18T09:03:41;99252.88;;;6.39;100.00
7433;BME280;32233;49.500;7.764;2023-11-18T09:06:15;99254.03;;;6.37;100.00
7433;BME280;32233;49.500;7.764;2023-11-18T09:08:46;99261.75;;;6.38;100.00
7433;BME280;32233;49.500;7.764;2023-11-18T09:11:20;99257.34;;;6.47;100.00
7433;BME280;32233;49.500;7.764;2023-11-18T09:13:50;99265.34;;;6.37;100.00
7433;BME280;32233;49.500;7.764;2023-11-18T09:16:21;99267.66;;;6.40;100.00
7433;BME280;32233;49.500;7.764;2023-11-18T09:18:57;99269.44;;;6.40;100.00
7433;BME280;32233;49.500;7.764;2023-11-18T09:21:29;99271.44;;;6.38;100.00
7433;BME280;32233;49.500;7.764;2023-11-18T09:23:57;99271.78;;;6.43;100.00
7433;BME280;32233;49.500;7.764;2023-11-18T09:26:24;99270.56;;;6.29;100.00
7433;BME280;32233;49.500;7.764;2023-11-18T09:28:52;99264.66;;;6.35;100.00
7433;BME280;32233;49.500;7.764;2023-11-18T09:31:20;99280.13;;;6.38;100.00
7433;BME280;32233;49.500;7.764;2023-11-18T09:33:48;99278.56;;;6.28;100.00
7433;BME280;32233;49.500;7.764;2023-11-18T09:36:23;99286.72;;;6.42;100.00
7433;BME280;32233;49.500;7.764;2023-11-18T09:38:50;99283.63;;;6.47;100.00
7433;BME280;32233;49.500;7.764;2023-11-18T09:41:17;99287.88;;;6.48;100.00
7433;BME280;32233;49.500;7.764;2023-11-18T09:43:45;99279.47;;;6.62;100.00
7433;BME280;32233;49.500;7.764;2023-11-18T09:46:13;99290.63;;;6.64;100.00
7433;BME280;32233;49.500;7.764;2023-11-18T09:48:48;99287.81;;;6.58;100.00
7433;BME280;32233;49.500;7.764;2023-11-18T09:51:23;99274.66;;;6.58;100.00
7433;BME280;32233;49.500;7.764;2023-11-18T09:53:53;99272.91;;;6.66;100.00
7433;BME280;32233;49.500;7.764;2023-11-18T09:56:30;99274.56;;;6.67;100.00
7433;BME280;32233;49.500;7.764;2023-11-18T09:59:10;99268.13;;;6.62;100.00
7433;BME280;32233;49.500;7.764;2023-11-18T10:01:43;99274.38;;;6.69;100.00
7433;BME280;32233;49.500;7.764;2023-11-18T10:04:14;99270.75;;;6.62;100.00
7433;BME280;32233;49.500;7.764;2023-11-18T10:06:46;99265.63;;;6.60;100.00
7433;BME280;32233;49.500;7.764;2023-11-18T10:09:13;99272.66;;;6.52;100.00
7433;BME280;32233;49.500;7.764;2023-11-18T10:11:47;99279.47;;;6.62;100.00
7433;BME280;32233;49.500;7.764;2023-11-18T10:14:14;99282.34;;;6.51;100.00
7433;BME280;32233;49.500;7.764;2023-11-18T10:16:45;99276.03;;;6.44;100.00
7433;BME280;32233;49.500;7.764;2023-11-18T10:19:15;99276.44;;;6.49;100.00
7433;BME280;32233;49.500;7.764;2023-11-18T10:21:45;99271.06;;;6.59;100.00
7433;BME280;32233;49.500;7.764;2023-11-18T10:24:15;99273.34;;;6.54;100.00
7433;BME280;32233;49.500;7.764;2023-11-18T10:26:54;99275.19;;;6.61;100.00
7433;BME280;32233;49.500;7.764;2023-11-18T10:29:25;99269.59;;;6.64;100.00
7433;BME280;32233;49.500;7.764;2023-11-18T10:41:34;99265.38;;;6.72;100.00
7433;BME280;32233;49.500;7.764;2023-11-18T11:08:28;99200.31;;;6.57;100.00
7433;BME280;32233;49.500;7.764;2023-11-18T11:16:58;99184.03;;;6.54;100.00
7433;BME280;32233;49.500;7.764;2023-11-18T11:37:08;99181.94;;;6.31;100.00
7433;BME280;32233;49.500;7.764;2023-11-18T11:39:38;99186.56;;;6.37;100.00
7433;BME280;32233;49.500;7.764;2023-11-18T11:42:05;99184.94;;;6.44;100.00
7433;BME280;32233;49.500;7.764;2023-11-18T11:44:36;99177.06;;;6.44;100.00
7433;BME280;32233;49.500;7.764;2023-11-18T11:47:09;99174.91;;;6.40;100.00
7433;BME280;32233;49.500;7.764;2023-11-18T11:49:49;99165.56;;;6.37;100.00
7433;BME280;32233;49.500;7.764;2023-11-18T11:52:26;99159.66;;;6.43;100.00
7433;BME280;32233;49.500;7.764;2023-11-18T11:55:01;99159.53;;;6.45;100.00
7433;BME280;32233;49.500;7.764;2023-11-18T11:57:32;99163.63;;;6.48;100.00
7433;BME280;32233;49.500;7.764;2023-11-18T12:00:09;99157.06;;;6.52;100.00
7433;BME280;32233;49.500;7.764;2023-11-18T12:02:49;99145.59;;;6.53;100.00
7433;BME280;32233;49.500;7.764;2023-11-18T12:05:17;99145.75;;;6.51;100.00
7433;BME280;32233;49.500;7.764;2023-11-18T12:07:52;99142.63;;;6.48;100.00
7433;BME280;32233;49.500;7.764;2023-11-18T12:10:32;99141.50;;;6.50;100.00
7433;BME280;32233;49.500;7.764;2023-11-18T12:13:09;99140.66;;;6.50;100.00
7433;BME280;32233;49.500;7.764;2023-11-18T12:15:56;99133.78;;;6.57;100.00
7433;BME280;32233;49.500;7.764;2023-11-18T12:21:54;99122.91;;;6.43;100.00
7433;BME280;32233;49.500;7.764;2023-11-18T12:24:20;99116.00;;;6.42;100.00
7433;BME280;32233;49.500;7.764;2023-11-18T12:26:48;99110.13;;;6.49;100.00
7433;BME280;32233;49.500;7.764;2023-11-18T12:29:41;99110.47;;;6.54;100.00
7433;BME280;32233;49.500;7.764;2023-11-18T12:32:10;99096.66;;;6.52;100.00
7433;BME280;32233;49.500;7.764;2023-11-18T12:34:52;99085.03;;;6.54;100.00
7433;BME280;32233;49.500;7.764;2023-11-18T12:43:02;99064.84;;;6.63;100.00
7433;BME280;32233;49.500;7.764;2023-11-18T12:48:14;99051.72;;;6.63;100.00
7433;BME280;32233;49.500;7.764;2023-11-18T12:50:41;99046.28;;;6.56;100.00
7433;BME280;32233;49.500;7.764;2023-11-18T12:53:10;99041.19;;;6.55;100.00
7433;BME280;32233;49.500;7.764;2023-11-18T12:55:39;99032.66;;;6.61;100.00
7433;BME280;32233;49.500;7.764;2023-11-18T12:58:07;99031.22;;;6.66;100.00
7433;BME280;32233;49.500;7.764;2023-11-18T13:00:34;99018.22;;;6.65;100.00
7433;BME280;32233;49.500;7.764;2023-11-18T13:03:02;99008.56;;;6.74;100.00
7433;BME280;32233;49.500;7.764;2023-11-18T13:05:29;98994.44;;;6.75;100.00
7433;BME280;32233;49.500;7.764;2023-11-18T13:07:56;98988.03;;;6.77;100.00
7433;BME280;32233;49.500;7.764;2023-11-18T13:10:28;98984.44;;;6.86;100.00
7433;BME280;32233;49.500;7.764;2023-11-18T13:12:55;98975.06;;;6.84;100.00
7433;BME280;32233;49.500;7.764;2023-11-18T13:15:24;98977.69;;;6.84;100.00
7433;BME280;32233;49.500;7.764;2023-11-18T13:18:02;98983.63;;;6.86;100.00
7433;BME280;32233;49.500;7.764;2023-11-18T13:20:33;98986.38;;;6.76;100.00
7433;BME280;32233;49.500;7.764;2023-11-18T13:23:09;98961.75;;;8.13;100.00
7433;BME280;32233;49.500;7.764;2023-11-18T13:25:36;98945.44;;;7.31;100.00
7433;BME280;32233;49.500;7.764;2023-11-18T13:28:07;98939.22;;;8.33;100.00
7433;BME280;32233;49.500;7.764;2023-11-18T13:30:37;98911.75;;;8.28;100.00
7433;BME280;32233;49.500;7.764;2023-11-18T13:33:06;98927.09;;;7.62;100.00
7433;BME280;32233;49.500;7.764;2023-11-18T13:35:34;98931.16;;;7.17;100.00
7433;BME280;32233;49.500;7.764;2023-11-18T13:38:02;98942.66;;;7.24;100.00
7433;BME280;32233;49.500;7.764;2023-11-18T13:40:47;98939.03;;;7.25;100.00
7433;BME280;32233;49.500;7.764;2023-11-18T13:43:15;98935.88;;;7.30;100.00
7433;BME280;32233;49.500;7.764;2023-11-18T13:45:41;98922.75;;;7.22;100.00
7433;BME280;32233;49.500;7.764;2023-11-18T13:48:11;98941.38;;;7.12;100.00
7433;BME280;32233;49.500;7.764;2023-11-18T13:50:40;98961.56;;;7.11;100.00
7433;BME280;32233;49.500;7.764;2023-11-18T13:53:07;98983.25;;;7.05;100.00
7433;BME280;32233;49.500;7.764;2023-11-18T13:55:34;98963.56;;;6.93;100.00
7433;BME280;32233;49.500;7.764;2023-11-18T13:58:02;98936.31;;;6.78;100.00
7433;BME280;32233;49.500;7.764;2023-11-18T14:00:31;98918.25;;;6.83;100.00
7433;BME280;32233;49.500;7.764;2023-11-18T14:02:58;98928.75;;;6.83;100.00
7433;BME280;32233;49.500;7.764;2023-11-18T14:05:33;98919.22;;;6.82;100.00
7433;BME280;32233;49.500;7.764;2023-11-18T14:08:00;98909.34;;;6.92;100.00
7433;BME280;32233;49.500;7.764;2023-11-18T14:10:26;98915.28;;;6.94;100.00
7433;BME280;32233;49.500;7.764;2023-11-18T14:13:02;98929.88;;;6.97;100.00
7433;BME280;32233;49.500;7.764;2023-11-18T14:15:29;98933.50;;;6.95;100.00
7433;BME280;32233;49.500;7.764;2023-11-18T14:17:57;98941.88;;;6.91;100.00
7433;BME280;32233;49.500;7.764;2023-11-18T14:20:24;98947.97;;;6.91;100.00
7433;BME280;32233;49.500;7.764;2023-11-18T14:22:51;98952.72;;;6.88;100.00
7433;BME280;32233;49.500;7.764;2023-11-18T14:25:21;98954.03;;;6.92;100.00
7433;BME280;32233;49.500;7.764;2023-11-18T14:27:51;98949.09;;;6.81;100.00
7433;BME280;32233;49.500;7.764;2023-11-18T14:30:17;98956.34;;;6.87;100.00
7433;BME280;32233;49.500;7.764;2023-11-18T14:32:46;98941.38;;;6.87;100.00
7433;BME280;32233;49.500;7.764;2023-11-18T14:35:13;98932.50;;;6.88;100.00
7433;BME280;32233;49.500;7.764;2023-11-18T14:37:44;98932.50;;;6.88;100.00